Time;durP1;ratioP1;P1;durP2;ratioP2;P2;SDS_P1;SDS_P2;PMS_P1;PMS_P2;Temp;Humidity;BMP_temperature;BMP_pressure;BME280_temperature;BME280_humidity;BME280_pressure;Samples;Min_cycle;Max_cycle;Signal;HPM_P1;HPM_P2
2023/12/27 00:00:52;;;;;;;4.13;1.55;;;8.50;99.90;;;;;;5053833;28;20616;-85
2023/12/27 00:03:19;;;;;;;3.50;1.88;;;8.50;99.90;;;;;;5053354;28;20220;-85
2023/12/27 00:05:46;;;;;;;4.68;1.38;;;8.50;99.90;;;;;;5053097;28;20455;-78
2023/12/27 00:08:13;;;;;;;4.13;1.80;;;8.50;99.90;;;;;;5053785;28;20220;-78
2023/12/27 00:10:40;;;;;;;6.38;1.77;;;8.50;99.90;;;;;;5052979;28;20228;-78
2023/12/27 00:13:08;;;;;;;9.88;2.75;;;8.60;99.90;;;;;;5053122;28;20236;-78
2023/12/27 00:15:45;;;;;;;10.20;3.03;;;8.50;99.90;;;;;;5053071;28;20236;-78
2023/12/27 00:18:12;;;;;;;4.80;2.60;;;8.50;99.90;;;;;;5052931;28;20224;-78
2023/12/27 00:20:39;;;;;;;8.55;3.10;;;8.50;99.90;;;;;;5053324;28;20252;-78
2023/12/27 00:23:06;;;;;;;7.65;4.47;;;8.50;99.90;;;;;;5052452;28;20673;-78
2023/12/27 00:25:33;;;;;;;6.93;3.92;;;8.50;99.90;;;;;;5053301;28;20247;-78
2023/12/27 00:28:00;;;;;;;9.90;6.20;;;8.50;99.90;;;;;;5052125;28;20248;-78
2023/12/27 00:30:28;;;;;;;6.97;3.65;;;8.40;99.90;;;;;;5053085;28;20225;-85
2023/12/27 00:32:55;;;;;;;4.22;3.17;;;8.40;99.90;;;;;;5053436;28;20236;-85
2023/12/27 00:35:22;;;;;;;4.03;1.90;;;8.40;99.90;;;;;;5053016;28;20303;-78
2023/12/27 00:37:52;;;;;;;2.63;1.63;;;8.40;99.90;;;;;;5052858;28;20228;-78
2023/12/27 00:40:19;;;;;;;6.75;3.08;;;8.40;99.90;;;;;;5053199;28;20685;-79
2023/12/27 00:42:46;;;;;;;4.05;1.73;;;8.30;99.90;;;;;;5052956;28;20228;-79
2023/12/27 00:45:13;;;;;;;8.23;2.38;;;8.30;99.90;;;;;;5053288;28;20270;-86
2023/12/27 00:47:46;;;;;;;4.30;2.85;;;8.30;99.90;;;;;;5053558;28;20240;-86
2023/12/27 00:50:40;;;;;;;4.35;1.50;;;8.30;99.90;;;;;;5039433;28;20225;-85
2023/12/27 00:53:09;;;;;;;3.03;1.42;;;8.20;99.90;;;;;;5050266;28;20629;-86
2023/12/27 00:55:36;;;;;;;4.70;1.80;;;8.20;99.90;;;;;;5052771;28;20297;-85
2023/12/27 00:58:03;;;;;;;6.78;2.03;;;8.20;99.90;;;;;;5053344;28;20235;-79
2023/12/27 01:00:30;;;;;;;2.85;1.42;;;8.20;99.90;;;;;;5053216;28;20225;-78
2023/12/27 01:02:59;;;;;;;7.13;3.10;;;8.10;99.90;;;;;;5053240;28;20231;-85
2023/12/27 01:05:26;;;;;;;3.95;1.70;;;8.10;99.90;;;;;;5055056;28;20228;-86
2023/12/27 01:07:53;;;;;;;2.42;2.05;;;8.10;99.90;;;;;;5054493;28;20255;-85
2023/12/27 01:10:20;;;;;;;12.93;2.65;;;8.10;99.90;;;;;;5055431;28;20243;-86
2023/12/27 01:12:48;;;;;;;7.38;2.10;;;8.10;99.90;;;;;;5054921;28;20229;-85
2023/12/27 01:15:16;;;;;;;6.63;2.03;;;8.10;99.90;;;;;;5055052;28;20259;-86
2023/12/27 01:17:43;;;;;;;4.18;1.65;;;8.00;99.90;;;;;;5053970;28;20229;-79
2023/12/27 01:20:12;;;;;;;4.13;1.60;;;8.00;99.90;;;;;;5054094;28;20304;-86
2023/12/27 01:22:39;;;;;;;5.40;1.80;;;8.10;99.90;;;;;;5055629;28;20229;-86
2023/12/27 01:25:06;;;;;;;5.93;2.22;;;8.10;99.90;;;;;;5055835;28;20248;-86
2023/12/27 01:27:33;;;;;;;4.82;2.03;;;8.00;99.90;;;;;;5052703;28;20228;-79
2023/12/27 01:30:00;;;;;;;6.97;1.98;;;8.10;99.90;;;;;;5056377;28;20232;-78
2023/12/27 01:32:27;;;;;;;4.40;1.80;;;8.10;99.90;;;;;;5060264;28;20247;-85
2023/12/27 01:34:54;;;;;;;5.97;1.77;;;8.10;99.90;;;;;;5066332;28;20623;-79
2023/12/27 01:37:22;;;;;;;6.45;2.15;;;8.10;99.90;;;;;;5057888;28;20216;-78
2023/12/27 01:39:50;;;;;;;5.75;2.00;;;8.20;99.90;;;;;;5055396;28;20240;-78
2023/12/27 01:42:17;;;;;;;5.95;2.20;;;8.20;99.90;;;;;;5056816;28;20224;-78
2023/12/27 01:44:44;;;;;;;5.47;1.88;;;8.20;99.90;;;;;;5056468;28;20678;-78
2023/12/27 01:47:13;;;;;;;5.97;2.40;;;8.20;99.90;;;;;;5056759;28;20218;-78
2023/12/27 01:49:40;;;;;;;5.65;2.40;;;8.20;99.90;;;;;;5055688;28;20302;-78
2023/12/27 01:52:09;;;;;;;3.95;1.80;;;8.20;99.90;;;;;;5057144;28;20236;-78
2023/12/27 01:54:39;;;;;;;3.35;1.65;;;8.10;99.90;;;;;;5057968;28;20225;-86
2023/12/27 01:57:06;;;;;;;2.38;1.70;;;8.10;99.90;;;;;;5056796;28;20216;-86
2023/12/27 01:59:33;;;;;;;3.60;2.00;;;8.10;99.90;;;;;;5056075;28;20229;-79
2023/12/27 02:02:09;;;;;;;7.70;2.20;;;8.10;99.90;;;;;;5055291;28;20224;-79
2023/12/27 02:04:36;;;;;;;4.65;2.00;;;8.10;99.90;;;;;;5056719;28;20227;-85
2023/12/27 02:07:04;;;;;;;2.72;1.60;;;8.00;99.90;;;;;;5056007;28;20228;-85
2023/12/27 02:09:31;;;;;;;5.13;1.73;;;8.00;99.90;;;;;;5056719;28;20247;-86
2023/12/27 02:11:59;;;;;;;10.98;2.60;;;8.00;99.90;;;;;;5054488;28;20236;-86
2023/12/27 02:14:26;;;;;;;5.38;1.98;;;8.00;99.90;;;;;;5055886;28;20229;-85
2023/12/27 02:16:54;;;;;;;7.10;1.75;;;7.90;99.90;;;;;;5055718;28;20231;-78
2023/12/27 02:19:22;;;;;;;6.95;2.10;;;7.90;99.90;;;;;;5048985;28;20259;-86
2023/12/27 02:21:50;;;;;;;5.43;2.10;;;7.90;99.90;;;;;;5067361;28;20224;-78
2023/12/27 02:24:19;;;;;;;5.88;2.15;;;7.80;99.90;;;;;;5055637;28;20221;-86
2023/12/27 02:26:48;;;;;;;7.30;2.08;;;7.80;99.90;;;;;;5056286;28;20278;-86
2023/12/27 02:29:16;;;;;;;6.10;1.85;;;7.80;99.90;;;;;;5055358;28;20224;-86
2023/12/27 02:31:43;;;;;;;5.25;1.77;;;7.80;99.90;;;;;;5056086;28;20224;-78
2023/12/27 02:34:10;;;;;;;3.90;1.58;;;7.80;99.90;;;;;;5054890;28;20228;-78
2023/12/27 02:36:38;;;;;;;6.63;2.38;;;7.80;99.90;;;;;;5058548;28;20298;-78
2023/12/27 02:39:05;;;;;;;4.97;1.80;;;7.80;99.90;;;;;;5056856;28;20274;-79
2023/12/27 02:41:32;;;;;;;3.65;1.80;;;7.80;99.90;;;;;;5054957;28;20237;-78
2023/12/27 02:44:00;;;;;;;8.30;2.10;;;7.90;99.90;;;;;;5054542;28;20228;-78
2023/12/27 02:46:32;;;;;;;4.82;1.98;;;7.80;99.90;;;;;;5055749;28;20231;-86
2023/12/27 02:48:59;;;;;;;6.80;2.17;;;7.80;99.90;;;;;;5056438;28;20251;-78
2023/12/27 02:51:26;;;;;;;11.25;4.45;;;7.80;99.90;;;;;;5054521;28;20266;-86
2023/12/27 02:53:53;;;;;;;7.47;4.50;;;7.80;99.90;;;;;;5062221;28;20233;-85
2023/12/27 02:56:21;;;;;;;6.88;2.75;;;7.80;99.90;;;;;;5061848;28;20562;-86
2023/12/27 02:59:09;;;;;;;8.82;1.95;;;7.80;99.90;;;;;;5062810;28;20232;-79
2023/12/27 03:01:36;;;;;;;4.15;1.80;;;7.80;99.90;;;;;;5055540;28;20573;-86
2023/12/27 03:04:03;;;;;;;2.63;1.48;;;7.70;99.90;;;;;;5065035;28;20282;-78
2023/12/27 03:06:30;;;;;;;3.33;1.90;;;7.70;99.90;;;;;;5054990;28;20224;-86
2023/12/27 03:08:57;;;;;;;5.38;1.75;;;7.70;99.90;;;;;;5054780;28;20221;-86
2023/12/27 03:11:24;;;;;;;8.23;1.70;;;7.70;99.90;;;;;;5054955;28;20220;-86
2023/12/27 03:13:50;;;;;;;8.02;2.47;;;7.70;99.90;;;;;;5054438;28;20232;-86
2023/12/27 03:16:20;;;;;;;5.88;1.73;;;7.70;99.90;;;;;;5054843;28;20231;-78
2023/12/27 03:18:48;;;;;;;6.60;2.65;;;7.70;99.90;;;;;;5053768;28;20337;-79
2023/12/27 03:21:15;;;;;;;5.05;1.60;;;7.60;99.90;;;;;;5054080;28;20220;-78
2023/12/27 03:23:42;;;;;;;2.53;1.60;;;7.60;99.90;;;;;;5054189;28;20243;-78
2023/12/27 03:26:09;;;;;;;2.50;1.95;;;7.60;99.90;;;;;;5054641;28;20217;-86
2023/12/27 03:28:36;;;;;;;8.20;2.35;;;7.60;99.90;;;;;;5055376;28;20228;-78
2023/12/27 03:31:03;;;;;;;5.25;3.35;;;7.60;99.90;;;;;;5054881;28;20224;-86
2023/12/27 03:33:31;;;;;;;6.90;2.70;;;7.60;99.90;;;;;;5054902;28;20233;-78
2023/12/27 03:36:02;;;;;;;7.88;1.95;;;7.50;99.90;;;;;;5054371;28;20243;-78
2023/12/27 03:38:29;;;;;;;7.53;1.67;;;7.50;99.90;;;;;;5053954;28;20263;-79
2023/12/27 03:40:56;;;;;;;5.95;2.65;;;7.50;99.90;;;;;;5044189;28;20228;-86
2023/12/27 03:43:23;;;;;;;2.88;2.08;;;7.50;99.90;;;;;;5054800;28;20747;-86
2023/12/27 03:45:53;;;;;;;4.55;1.67;;;7.40;99.90;;;;;;5053610;28;20228;-79
2023/12/27 03:48:20;;;;;;;4.68;2.83;;;7.50;99.90;;;;;;5054656;28;20319;-86
2023/12/27 03:50:49;;;;;;;9.30;3.20;;;7.50;99.90;;;;;;5054114;28;20221;-78
2023/12/27 03:53:16;;;;;;;5.60;2.10;;;7.50;99.90;;;;;;5053528;28;20221;-85
2023/12/27 03:55:44;;;;;;;4.88;2.33;;;7.60;99.90;;;;;;5056408;28;20216;-86
2023/12/27 03:58:11;;;;;;;6.95;3.38;;;7.60;99.90;;;;;;5055594;28;20598;-78
2023/12/27 04:00:38;;;;;;;8.43;1.70;;;7.60;99.90;;;;;;5053235;28;20225;-78
2023/12/27 04:03:05;;;;;;;3.80;1.30;;;7.60;99.90;;;;;;5052860;28;20316;-78
2023/12/27 04:05:32;;;;;;;8.88;2.22;;;7.60;99.90;;;;;;5053530;28;20224;-78
2023/12/27 04:08:01;;;;;;;14.20;2.55;;;7.50;99.90;;;;;;5053582;28;20225;-85
2023/12/27 04:10:31;;;;;;;10.52;2.35;;;7.50;99.90;;;;;;5053132;28;20224;-85
2023/12/27 04:12:59;;;;;;;5.00;1.98;;;7.50;99.90;;;;;;5053120;28;20224;-85
2023/12/27 04:15:26;;;;;;;5.13;1.50;;;7.40;99.90;;;;;;5053134;28;20228;-78
2023/12/27 04:17:53;;;;;;;5.60;2.53;;;7.40;99.90;;;;;;5053559;28;20224;-85
2023/12/27 04:20:20;;;;;;;8.30;2.05;;;7.40;99.90;;;;;;5052730;28;20228;-78
2023/12/27 04:22:47;;;;;;;3.15;1.95;;;7.40;99.90;;;;;;5053058;28;20229;-78
2023/12/27 04:25:15;;;;;;;4.47;2.15;;;7.40;99.90;;;;;;5052900;28;20311;-85
2023/12/27 04:27:42;;;;;;;5.63;1.85;;;7.40;99.90;;;;;;5053771;28;20251;-78
2023/12/27 04:30:10;;;;;;;7.43;2.38;;;7.30;99.90;;;;;;5052566;28;20228;-78
2023/12/27 04:32:37;;;;;;;2.22;1.40;;;7.40;99.90;;;;;;5053073;28;20228;-78
2023/12/27 04:35:05;;;;;;;10.57;2.05;;;7.40;99.90;;;;;;5053312;28;20224;-82
2023/12/27 04:37:31;;;;;;;5.63;2.38;;;7.30;99.90;;;;;;5052665;28;20213;-78
2023/12/27 04:39:59;;;;;;;1.63;1.30;;;7.30;99.90;;;;;;5053218;28;20565;-78
2023/12/27 04:42:27;;;;;;;5.65;1.90;;;7.30;99.90;;;;;;5052640;28;20237;-78
2023/12/27 04:44:54;;;;;;;3.00;2.00;;;7.30;99.90;;;;;;5053222;28;20220;-78
2023/12/27 04:47:23;;;;;;;4.72;2.00;;;7.30;99.90;;;;;;5052767;28;20678;-79
2023/12/27 04:49:51;;;;;;;8.00;3.20;;;7.40;99.90;;;;;;5053301;28;20278;-85
2023/12/27 04:52:18;;;;;;;6.30;3.00;;;7.30;99.90;;;;;;5052079;28;20270;-85
2023/12/27 04:54:45;;;;;;;5.50;2.20;;;7.30;99.90;;;;;;5052682;28;20221;-78
2023/12/27 04:57:12;;;;;;;7.22;1.88;;;7.30;99.90;;;;;;5041372;28;20219;-77
2023/12/27 04:59:41;;;;;;;6.47;3.13;;;7.30;99.90;;;;;;5060945;28;20240;-85
2023/12/27 05:02:08;;;;;;;7.03;2.25;;;7.40;99.90;;;;;;5053661;28;20239;-85
2023/12/27 05:04:35;;;;;;;3.88;1.80;;;7.30;99.90;;;;;;5052755;28;20282;-85
2023/12/27 05:07:02;;;;;;;8.32;2.45;;;7.40;99.90;;;;;;5053968;28;20229;-86
2023/12/27 05:09:29;;;;;;;2.50;1.67;;;7.40;99.90;;;;;;5051785;28;20221;-85
2023/12/27 05:11:56;;;;;;;3.00;1.70;;;7.40;99.90;;;;;;5053194;28;20228;-78
2023/12/27 05:14:23;;;;;;;6.57;1.70;;;7.40;99.90;;;;;;5053554;28;20741;-78
2023/12/27 05:16:55;;;;;;;7.40;2.50;;;7.40;99.90;;;;;;5056854;28;20601;-85
2023/12/27 05:19:24;;;;;;;5.88;2.10;;;7.30;99.90;;;;;;5056195;28;20251;-85
2023/12/27 05:21:51;;;;;;;6.32;1.65;;;7.30;99.90;;;;;;5057232;28;20552;-85
2023/12/27 05:24:18;;;;;;;3.63;1.77;;;7.30;99.90;;;;;;5056222;28;20228;-80
2023/12/27 05:26:45;;;;;;;2.65;2.03;;;7.30;99.90;;;;;;5056524;28;20236;-78
2023/12/27 05:29:12;;;;;;;10.60;3.65;;;7.30;99.90;;;;;;5056916;28;20221;-85
2023/12/27 05:31:39;;;;;;;4.45;1.92;;;7.30;99.90;;;;;;5054765;28;20232;-85
2023/12/27 05:34:07;;;;;;;3.35;1.63;;;7.30;99.90;;;;;;5056297;28;20811;-85
2023/12/27 05:36:34;;;;;;;6.38;1.60;;;7.30;99.90;;;;;;5056389;28;20228;-85
2023/12/27 05:39:03;;;;;;;6.05;2.10;;;7.30;99.90;;;;;;5056355;28;20224;-78
2023/12/27 05:41:30;;;;;;;8.60;2.45;;;7.30;99.90;;;;;;5056278;28;20693;-78
2023/12/27 05:43:58;;;;;;;6.18;1.70;;;7.30;99.90;;;;;;5056362;28;20232;-77
2023/12/27 05:46:25;;;;;;;4.00;1.58;;;7.40;99.90;;;;;;5055733;28;20241;-85
2023/12/27 05:48:52;;;;;;;6.43;1.60;;;7.30;99.90;;;;;;5056903;28;20279;-78
2023/12/27 05:51:21;;;;;;;4.45;1.85;;;7.30;99.90;;;;;;5056066;28;20225;-78
2023/12/27 05:53:48;;;;;;;11.25;3.03;;;7.30;99.90;;;;;;5055682;28;20220;-78
2023/12/27 05:56:15;;;;;;;6.10;1.80;;;7.30;99.90;;;;;;5055621;28;20228;-79
2023/12/27 05:58:43;;;;;;;7.20;2.47;;;7.30;99.90;;;;;;5055425;28;20558;-78
2023/12/27 06:01:10;;;;;;;7.07;2.03;;;7.30;99.90;;;;;;5071657;28;20229;-85
2023/12/27 06:03:37;;;;;;;6.90;2.50;;;7.20;99.90;;;;;;5058633;28;20244;-79
2023/12/27 06:06:04;;;;;;;3.40;1.90;;;7.20;99.90;;;;;;5056041;28;20354;-78
2023/12/27 06:08:32;;;;;;;9.18;1.70;;;7.20;99.90;;;;;;5055621;28;20229;-78
2023/12/27 06:11:00;;;;;;;8.13;2.65;;;7.20;99.90;;;;;;5059101;28;20223;-85
2023/12/27 06:13:27;;;;;;;2.30;1.60;;;7.20;99.90;;;;;;5057362;28;20240;-85
2023/12/27 06:15:57;;;;;;;6.18;1.80;;;7.20;99.90;;;;;;5056313;28;20232;-85
2023/12/27 06:18:26;;;;;;;4.53;2.10;;;7.20;99.90;;;;;;5056299;28;20240;-85
2023/12/27 06:20:55;;;;;;;6.15;2.03;;;7.20;99.90;;;;;;5055782;28;20558;-77
2023/12/27 06:23:23;;;;;;;6.43;2.35;;;7.20;99.90;;;;;;5055180;28;20701;-78
2023/12/27 06:25:51;;;;;;;5.05;1.90;;;7.10;99.90;;;;;;5055430;28;20225;-85
2023/12/27 06:28:18;;;;;;;6.53;2.80;;;7.10;99.90;;;;;;5055981;28;20220;-85
2023/12/27 06:30:45;;;;;;;12.70;4.53;;;7.10;99.90;;;;;;5054455;28;20236;-84
2023/12/27 06:33:12;;;;;;;6.32;2.13;;;7.20;99.90;;;;;;5055598;28;20678;-85
2023/12/27 06:35:39;;;;;;;12.65;2.20;;;7.20;99.90;;;;;;5054697;28;20677;-77
2023/12/27 06:38:06;;;;;;;5.82;2.22;;;7.10;99.90;;;;;;5055168;28;20261;-77
2023/12/27 06:40:42;;;;;;;6.10;2.00;;;7.10;99.90;;;;;;5054753;28;20243;-85
2023/12/27 06:43:11;;;;;;;5.88;1.73;;;7.10;99.90;;;;;;5055177;28;20231;-85
2023/12/27 06:45:38;;;;;;;9.60;1.65;;;7.10;99.90;;;;;;5054525;28;20236;-84
2023/12/27 06:48:06;;;;;;;3.05;2.13;;;7.10;99.90;;;;;;5055627;28;20304;-85
2023/12/27 06:50:33;;;;;;;5.47;1.98;;;7.10;99.90;;;;;;5054669;28;20303;-78
2023/12/27 06:52:59;;;;;;;5.05;1.58;;;7.10;99.90;;;;;;5054729;28;20236;-77
2023/12/27 06:55:26;;;;;;;3.97;1.70;;;7.00;99.90;;;;;;5054975;28;21053;-85
2023/12/27 06:57:53;;;;;;;3.72;1.95;;;7.00;99.90;;;;;;5055136;28;20221;-85
2023/12/27 07:00:22;;;;;;;7.00;2.30;;;7.00;99.90;;;;;;5055495;28;20236;-78
2023/12/27 07:02:49;;;;;;;7.93;1.70;;;7.00;99.90;;;;;;5054578;28;20236;-78
2023/12/27 07:05:16;;;;;;;13.70;2.20;;;7.00;99.90;;;;;;5055771;28;20224;-78
2023/12/27 07:07:43;;;;;;;3.65;1.80;;;6.90;99.90;;;;;;5054431;28;20231;-78
2023/12/27 07:10:10;;;;;;;6.05;2.10;;;6.90;99.90;;;;;;5055248;28;20242;-85
2023/12/27 07:12:38;;;;;;;7.55;2.63;;;6.90;99.90;;;;;;5054091;28;20319;-77
2023/12/27 07:15:07;;;;;;;2.35;1.60;;;6.90;99.90;;;;;;5053483;28;20228;-78
2023/12/27 07:17:35;;;;;;;5.68;2.15;;;6.90;99.90;;;;;;5052953;28;20553;-79
2023/12/27 07:20:02;;;;;;;5.57;1.98;;;6.90;99.90;;;;;;5053293;28;20224;-78
2023/12/27 07:22:30;;;;;;;2.95;1.83;;;6.90;99.90;;;;;;5053357;28;20224;-78
2023/12/27 07:24:57;;;;;;;5.57;2.35;;;6.90;99.90;;;;;;5053372;28;20216;-78
2023/12/27 07:27:24;;;;;;;4.97;2.10;;;6.90;99.90;;;;;;5053547;28;20240;-78
2023/12/27 07:29:51;;;;;;;3.47;1.80;;;6.90;99.90;;;;;;5052775;28;20225;-78
2023/12/27 07:32:18;;;;;;;5.60;2.90;;;6.90;99.90;;;;;;5053440;28;20248;-85
2023/12/27 07:34:49;;;;;;;5.88;2.65;;;6.90;99.90;;;;;;5053318;28;20673;-85
2023/12/27 07:37:19;;;;;;;6.15;2.55;;;6.90;99.90;;;;;;5052905;28;20666;-78
2023/12/27 07:39:46;;;;;;;7.10;2.70;;;6.90;99.90;;;;;;5052471;28;20662;-78
2023/12/27 07:42:13;;;;;;;4.28;2.25;;;6.90;99.90;;;;;;5052966;28;20224;-85
2023/12/27 07:44:40;;;;;;;3.42;2.35;;;6.90;99.90;;;;;;5053801;28;20554;-85
2023/12/27 07:47:22;;;;;;;9.85;2.38;;;6.90;99.90;;;;;;5050291;28;20304;-85
2023/12/27 07:49:51;;;;;;;7.90;1.50;;;6.90;99.90;;;;;;5044253;28;20311;-77
2023/12/27 07:52:18;;;;;;;6.68;2.50;;;6.90;99.90;;;;;;5053345;28;20579;-78
2023/12/27 07:54:45;;;;;;;6.88;2.00;;;6.90;99.90;;;;;;5051861;28;20225;-77
2023/12/27 07:57:12;;;;;;;9.27;2.30;;;6.90;99.90;;;;;;5053156;28;20221;-78
2023/12/27 07:59:39;;;;;;;4.82;1.60;;;6.90;99.90;;;;;;5053096;28;20224;-77
2023/12/27 08:02:06;;;;;;;11.55;3.58;;;6.90;99.90;;;;;;5052808;28;20221;-78
2023/12/27 08:04:33;;;;;;;8.70;2.47;;;6.90;99.90;;;;;;5052889;28;20228;-78
2023/12/27 08:07:01;;;;;;;6.47;2.38;;;6.90;99.90;;;;;;5052528;28;20221;-78
2023/12/27 08:09:29;;;;;;;5.20;3.00;;;6.90;99.90;;;;;;5052881;28;20630;-78
2023/12/27 08:11:56;;;;;;;9.18;3.90;;;6.90;99.90;;;;;;5053054;28;20232;-85
2023/12/27 08:14:23;;;;;;;4.03;3.03;;;6.90;99.90;;;;;;5007332;28;1318992;-78
2023/12/27 08:16:52;;;;;;;6.90;3.67;;;6.90;99.90;;;;;;5053276;28;20225;-85
2023/12/27 08:19:20;;;;;;;5.05;3.65;;;6.90;99.90;;;;;;5053114;28;20224;-78
2023/12/27 08:21:47;;;;;;;4.97;3.30;;;6.90;99.90;;;;;;5053401;28;20224;-85
2023/12/27 08:24:15;;;;;;;10.13;3.72;;;6.90;99.90;;;;;;5054011;28;20220;-85
2023/12/27 08:26:42;;;;;;;9.05;4.43;;;6.90;99.90;;;;;;5055342;28;20216;-85
2023/12/27 08:29:09;;;;;;;6.45;2.55;;;6.90;99.90;;;;;;5056015;28;20220;-86
2023/12/27 08:31:38;;;;;;;5.90;2.30;;;7.00;99.90;;;;;;5052990;28;20316;-86
2023/12/27 08:34:08;;;;;;;4.22;1.73;;;7.00;99.90;;;;;;5054727;28;20239;-80
2023/12/27 08:36:35;;;;;;;6.20;2.47;;;7.00;99.90;;;;;;5046294;28;20239;-79
2023/12/27 08:39:02;;;;;;;4.70;2.13;;;7.00;99.90;;;;;;5053291;28;20252;-78
2023/12/27 08:41:30;;;;;;;4.45;1.90;;;7.00;99.90;;;;;;5053373;28;20236;-78
2023/12/27 08:43:57;;;;;;;8.93;2.55;;;7.00;99.90;;;;;;5052410;28;20248;-78
2023/12/27 08:46:25;;;;;;;6.40;2.97;;;7.10;99.90;;;;;;5053353;28;20366;-86
2023/12/27 08:48:52;;;;;;;6.32;2.13;;;7.10;99.90;;;;;;5054452;28;20595;-78
2023/12/27 08:51:19;;;;;;;9.48;3.55;;;7.10;99.90;;;;;;5057635;28;20227;-78
2023/12/27 08:53:46;;;;;;;8.30;3.35;;;7.10;99.90;;;;;;5057561;28;20229;-86
2023/12/27 08:56:13;;;;;;;6.20;2.33;;;7.10;99.90;;;;;;5056701;28;20227;-86
2023/12/27 08:58:42;;;;;;;5.63;2.70;;;7.10;99.90;;;;;;5057507;28;20244;-76
2023/12/27 09:01:10;;;;;;;5.95;2.30;;;7.10;99.90;;;;;;5056001;28;20562;-77
2023/12/27 09:03:37;;;;;;;4.72;2.67;;;7.10;99.90;;;;;;5056752;28;20228;-77
2023/12/27 09:06:05;;;;;;;10.30;3.17;;;7.20;99.90;;;;;;5055470;28;20307;-78
2023/12/27 09:08:32;;;;;;;6.15;2.85;;;7.20;99.90;;;;;;5057222;28;20231;-86
2023/12/27 09:10:59;;;;;;;8.00;4.38;;;7.20;99.90;;;;;;5056478;28;20637;-86
2023/12/27 09:13:26;;;;;;;8.82;4.20;;;7.20;99.90;;;;;;5056953;28;20233;-86
2023/12/27 09:15:55;;;;;;;7.35;3.30;;;7.30;99.90;;;;;;5056748;28;20224;-86
2023/12/27 09:18:21;;;;;;;6.47;3.00;;;7.20;99.90;;;;;;5056825;28;20216;-78
2023/12/27 09:20:48;;;;;;;6.38;3.05;;;7.20;99.90;;;;;;5056845;28;20286;-78
2023/12/27 09:23:15;;;;;;;9.32;2.78;;;7.20;99.90;;;;;;5056004;28;20557;-86
2023/12/27 09:25:42;;;;;;;5.50;2.38;;;7.20;99.90;;;;;;5060421;28;20568;-86
2023/12/27 09:28:09;;;;;;;6.63;2.30;;;7.30;99.90;;;;;;5057157;28;20225;-86
2023/12/27 09:30:36;;;;;;;6.38;2.35;;;7.30;99.90;;;;;;5055656;28;20873;-85
2023/12/27 09:33:05;;;;;;;8.23;2.25;;;7.30;99.90;;;;;;5056865;28;20229;-86
2023/12/27 09:35:32;;;;;;;4.70;2.58;;;7.40;99.90;;;;;;5057072;28;20554;-86
2023/12/27 09:37:59;;;;;;;9.20;2.95;;;7.30;99.90;;;;;;5056433;28;20263;-86
2023/12/27 09:40:26;;;;;;;1.77;1.50;;;7.40;99.90;;;;;;5058963;28;20737;-86
2023/12/27 09:42:55;;;;;;;6.40;2.17;;;7.40;99.90;;;;;;5056580;28;20224;-79
2023/12/27 09:45:24;;;;;;;7.80;2.15;;;7.40;99.90;;;;;;5056456;28;20477;-78
2023/12/27 09:47:56;;;;;;;6.88;3.58;;;7.50;99.90;;;;;;5055822;28;20751;-79
2023/12/27 09:50:25;;;;;;;9.43;2.78;;;7.50;99.90;;;;;;5056125;28;20228;-77
2023/12/27 09:52:54;;;;;;;8.05;2.00;;;7.50;99.90;;;;;;5055551;28;20242;-77
2023/12/27 09:55:21;;;;;;;4.38;2.13;;;7.50;99.90;;;;;;5055727;28;20221;-78
2023/12/27 09:57:51;;;;;;;4.05;2.13;;;7.60;99.90;;;;;;5055900;28;20224;-78
2023/12/27 10:00:29;;;;;;;8.93;1.98;;;7.60;99.90;;;;;;5056030;28;20298;-78
2023/12/27 10:02:59;;;;;;;4.57;2.28;;;7.60;99.90;;;;;;5055616;28;20232;-78
2023/12/27 10:05:41;;;;;;;4.70;2.20;;;7.60;99.90;;;;;;5056002;28;20235;-78
2023/12/27 10:08:10;;;;;;;6.30;2.30;;;7.60;99.90;;;;;;5053561;28;20228;-78
2023/12/27 10:10:38;;;;;;;6.68;2.30;;;7.70;99.90;;;;;;5055630;28;20283;-78
2023/12/27 10:13:07;;;;;;;3.13;1.42;;;7.70;99.90;;;;;;5055382;28;20243;-78
2023/12/27 10:16:03;;;;;;;4.20;1.80;;;7.70;99.90;;;;;;5055375;28;20225;-78
2023/12/27 10:18:31;;;;;;;3.65;2.03;;;7.80;99.90;;;;;;5054795;28;20256;-79
2023/12/27 10:21:00;;;;;;;3.05;1.90;;;7.80;99.90;;;;;;5056432;28;20611;-78
2023/12/27 10:23:27;;;;;;;4.03;1.73;;;7.80;99.90;;;;;;5055329;28;20221;-79
2023/12/27 10:25:59;;;;;;;4.57;2.15;;;7.80;99.90;;;;;;5055697;28;20228;-83
2023/12/27 10:28:27;;;;;;;3.70;1.50;;;7.90;99.90;;;;;;5056164;28;20724;-79
2023/12/27 10:30:54;;;;;;;5.38;2.15;;;7.90;99.90;;;;;;5055642;28;20727;-78
2023/12/27 10:33:21;;;;;;;4.43;1.80;;;7.90;99.90;;;;;;5055948;28;20255;-86
2023/12/27 10:35:48;;;;;;;3.97;1.92;;;7.90;99.90;;;;;;5056727;28;20234;-85
2023/12/27 10:38:17;;;;;;;2.83;2.00;;;8.00;99.90;;;;;;5056300;28;20220;-85
2023/12/27 10:40:54;;;;;;;6.55;2.65;;;8.00;99.90;;;;;;5055808;28;20541;-84
2023/12/27 10:43:24;;;;;;;10.85;4.20;;;8.00;99.90;;;;;;5056368;28;20248;-85
2023/12/27 10:45:51;;;;;;;6.50;2.88;;;8.00;99.90;;;;;;5056319;28;20599;-85
2023/12/27 10:48:21;;;;;;;7.57;3.28;;;8.10;99.90;;;;;;5047201;28;20307;-85
2023/12/27 10:50:48;;;;;;;6.00;3.42;;;8.10;99.90;;;;;;5059314;28;20700;-85
2023/12/27 10:53:21;;;;;;;6.55;3.08;;;8.10;99.90;;;;;;5055832;28;20224;-85
2023/12/27 10:55:49;;;;;;;3.65;2.85;;;8.10;99.90;;;;;;5055719;28;20228;-85
2023/12/27 10:58:21;;;;;;;7.65;4.95;;;8.10;99.90;;;;;;5050861;28;20228;-85
2023/12/27 11:00:48;;;;;;;5.18;2.83;;;8.20;99.90;;;;;;5061587;28;20305;-85
2023/12/27 11:03:15;;;;;;;4.32;2.80;;;8.20;99.90;;;;;;5054908;28;20224;-85
2023/12/27 11:09:10;;;;;;;8.68;2.58;;;8.30;99.90;;;;;;5009831;28;20300;-85
2023/12/27 11:11:40;;;;;;;4.78;2.40;;;8.30;99.90;;;;;;5053070;28;20220;-85
2023/12/27 11:14:11;;;;;;;7.80;3.53;;;8.30;99.90;;;;;;5054949;28;20263;-85
2023/12/27 11:16:40;;;;;;;5.30;3.38;;;8.30;99.90;;;;;;5054698;28;20555;-85
2023/12/27 11:19:08;;;;;;;7.63;2.47;;;8.30;99.90;;;;;;5056654;28;20224;-86
2023/12/27 11:22:03;;;;;;;4.75;3.33;;;8.40;99.90;;;;;;5056590;28;20234;-85
2023/12/27 11:24:32;;;;;;;7.20;2.90;;;8.40;99.90;;;;;;5016107;28;20232;-86
2023/12/27 11:27:05;;;;;;;7.25;2.60;;;8.40;99.90;;;;;;5034585;28;20217;-85
2023/12/27 11:29:33;;;;;;;5.32;2.65;;;8.40;99.90;;;;;;5034287;28;20221;-86
2023/12/27 11:32:01;;;;;;;4.72;2.25;;;8.40;99.90;;;;;;5038130;28;20698;-86
2023/12/27 11:34:28;;;;;;;3.17;2.10;;;8.50;99.90;;;;;;5053960;28;20225;-85
2023/12/27 11:36:56;;;;;;;3.65;2.35;;;8.50;99.90;;;;;;5054707;28;20227;-86
2023/12/27 11:39:26;;;;;;;7.15;2.40;;;8.50;99.90;;;;;;5053646;28;20224;-86
2023/12/27 11:41:57;;;;;;;2.58;2.03;;;8.50;99.90;;;;;;5054026;28;20654;-78
2023/12/27 11:44:24;;;;;;;8.93;3.65;;;8.50;99.90;;;;;;5052568;28;20224;-78
2023/12/27 11:46:51;;;;;;;6.70;3.33;;;8.50;99.90;;;;;;5053593;28;20561;-78
2023/12/27 11:49:22;;;;;;;5.93;3.25;;;8.50;99.90;;;;;;5053796;28;20223;-78
2023/12/27 11:51:49;;;;;;;6.13;3.25;;;8.60;99.90;;;;;;5053510;28;20220;-78
2023/12/27 11:54:23;;;;;;;7.75;2.22;;;8.50;99.90;;;;;;5053602;28;20224;-78
2023/12/27 11:56:51;;;;;;;8.10;2.55;;;8.50;99.90;;;;;;5053222;28;20304;-86
2023/12/27 11:59:21;;;;;;;5.28;2.00;;;8.60;99.90;;;;;;5054020;28;20228;-85
2023/12/27 12:01:49;;;;;;;5.05;2.33;;;8.60;99.90;;;;;;5053431;28;20229;-78
2023/12/27 12:04:37;;;;;;;12.13;3.17;;;8.60;99.90;;;;;;5053608;28;20225;-78
2023/12/27 12:07:45;;;;;;;6.82;2.35;;;8.50;99.90;;;;;;5053798;28;20220;-78
2023/12/27 12:10:26;;;;;;;2.70;1.80;;;8.60;99.90;;;;;;4991918;28;20226;-78
2023/12/27 12:12:57;;;;;;;5.25;2.20;;;8.60;99.90;;;;;;5047043;28;20366;-78
2023/12/27 12:15:29;;;;;;;5.00;2.45;;;8.60;99.90;;;;;;5053384;28;20228;-78
2023/12/27 12:17:56;;;;;;;7.95;2.80;;;8.60;99.90;;;;;;5052701;28;20248;-78
2023/12/27 12:20:24;;;;;;;7.05;2.97;;;8.60;99.90;;;;;;5053133;28;20307;-78
2023/12/27 12:22:51;;;;;;;9.45;3.42;;;8.60;99.90;;;;;;5052568;28;20243;-85
2023/12/27 12:25:24;;;;;;;10.38;4.35;;;8.60;99.90;;;;;;5053437;28;20221;-86
2023/12/27 12:27:51;;;;;;;9.40;4.93;;;8.60;99.90;;;;;;5052333;28;20228;-78
2023/12/27 12:30:20;;;;;;;6.63;3.53;;;8.60;99.90;;;;;;5053112;28;20674;-86
2023/12/27 12:32:49;;;;;;;4.10;2.40;;;8.60;99.90;;;;;;5053294;28;20308;-86
2023/12/27 12:35:16;;;;;;;3.30;2.25;;;8.60;99.90;;;;;;5053608;28;20562;-86
2023/12/27 12:37:42;;;;;;;7.60;2.50;;;8.50;99.90;;;;;;5052963;28;20232;-85
2023/12/27 12:40:09;;;;;;;8.57;2.40;;;8.50;99.90;;;;;;5052863;28;20220;-85
2023/12/27 12:42:36;;;;;;;3.40;2.15;;;8.60;99.90;;;;;;5053478;28;20467;-85
2023/12/27 12:45:05;;;;;;;2.38;1.92;;;8.60;99.90;;;;;;5053039;28;20247;-85
2023/12/27 12:47:33;;;;;;;6.22;2.75;;;8.60;99.90;;;;;;5053260;28;20225;-85
2023/12/27 12:50:01;;;;;;;5.07;2.47;;;8.60;99.90;;;;;;5052560;28;20270;-84
2023/12/27 12:52:28;;;;;;;2.85;1.95;;;8.60;99.90;;;;;;5052956;28;20229;-85
2023/12/27 12:55:00;;;;;;;3.75;2.22;;;8.60;99.90;;;;;;5052617;28;20232;-77
2023/12/27 12:57:29;;;;;;;7.53;2.60;;;8.60;99.90;;;;;;5052905;28;20224;-77
2023/12/27 12:59:56;;;;;;;4.13;2.30;;;8.60;99.90;;;;;;5053089;28;20590;-84
2023/12/27 13:02:23;;;;;;;5.65;2.63;;;8.60;99.90;;;;;;5052611;28;20230;-78
2023/12/27 13:04:52;;;;;;;4.65;2.80;;;8.60;99.90;;;;;;5053076;28;20670;-77